sensor_id;sensor_type;location;lat;lon;timestamp;P1;durP1;ratioP1;P2;durP2;ratioP2
6223;SDS011;3145;42.726;23.342;2024-01-15T00:00:51;177.67;;;91.67;;
6223;SDS011;3145;42.726;23.342;2024-01-15T00:03:19;177.17;;;85.10;;
6223;SDS011;3145;42.726;23.342;2024-01-15T00:05:46;172.40;;;90.37;;
6223;SDS011;3145;42.726;23.342;2024-01-15T00:08:12;165.47;;;90.53;;
6223;SDS011;3145;42.726;23.342;2024-01-15T00:10:39;190.43;;;86.17;;
6223;SDS011;3145;42.726;23.342;2024-01-15T00:13:06;177.43;;;89.70;;
6223;SDS011;3145;42.726;23.342;2024-01-15T00:15:33;187.63;;;87.03;;
6223;SDS011;3145;42.726;23.342;2024-01-15T00:18:00;199.03;;;106.13;;
6223;SDS011;3145;42.726;23.342;2024-01-15T00:20:28;199.30;;;99.90;;
6223;SDS011;3145;42.726;23.342;2024-01-15T00:22:54;184.27;;;95.00;;
6223;SDS011;3145;42.726;23.342;2024-01-15T00:25:21;185.10;;;95.30;;
6223;SDS011;3145;42.726;23.342;2024-01-15T00:27:48;188.77;;;103.27;;
6223;SDS011;3145;42.726;23.342;2024-01-15T00:30:15;195.27;;;103.47;;
6223;SDS011;3145;42.726;23.342;2024-01-15T00:32:42;194.53;;;97.90;;
6223;SDS011;3145;42.726;23.342;2024-01-15T00:35:09;191.80;;;104.43;;
6223;SDS011;3145;42.726;23.342;2024-01-15T00:37:37;184.50;;;95.50;;
6223;SDS011;3145;42.726;23.342;2024-01-15T00:40:05;193.50;;;100.23;;
6223;SDS011;3145;42.726;23.342;2024-01-15T00:42:33;212.90;;;107.30;;
6223;SDS011;3145;42.726;23.342;2024-01-15T00:44:59;199.80;;;104.40;;
6223;SDS011;3145;42.726;23.342;2024-01-15T00:47:26;204.57;;;100.93;;
6223;SDS011;3145;42.726;23.342;2024-01-15T00:49:53;195.10;;;102.07;;
6223;SDS011;3145;42.726;23.342;2024-01-15T00:52:20;194.40;;;101.87;;
6223;SDS011;3145;42.726;23.342;2024-01-15T00:54:48;262.10;;;122.70;;
6223;SDS011;3145;42.726;23.342;2024-01-15T00:57:14;217.80;;;108.90;;
6223;SDS011;3145;42.726;23.342;2024-01-15T00:59:41;206.17;;;108.30;;
6223;SDS011;3145;42.726;23.342;2024-01-15T01:02:08;209.80;;;106.93;;
6223;SDS011;3145;42.726;23.342;2024-01-15T01:04:34;209.63;;;108.63;;
6223;SDS011;3145;42.726;23.342;2024-01-15T01:07:01;207.67;;;107.40;;
6223;SDS011;3145;42.726;23.342;2024-01-15T01:09:28;198.67;;;109.37;;
6223;SDS011;3145;42.726;23.342;2024-01-15T01:11:56;210.53;;;109.63;;
6223;SDS011;3145;42.726;23.342;2024-01-15T01:14:23;219.17;;;110.43;;
6223;SDS011;3145;42.726;23.342;2024-01-15T01:16:50;214.40;;;107.93;;
6223;SDS011;3145;42.726;23.342;2024-01-15T01:19:16;225.27;;;110.43;;
6223;SDS011;3145;42.726;23.342;2024-01-15T01:21:43;201.57;;;105.87;;
6223;SDS011;3145;42.726;23.342;2024-01-15T01:24:10;236.20;;;110.53;;
6223;SDS011;3145;42.726;23.342;2024-01-15T01:26:36;200.83;;;110.13;;
6223;SDS011;3145;42.726;23.342;2024-01-15T01:29:04;215.10;;;112.27;;
6223;SDS011;3145;42.726;23.342;2024-01-15T01:31:31;211.97;;;111.00;;
6223;SDS011;3145;42.726;23.342;2024-01-15T01:33:58;221.90;;;112.03;;
6223;SDS011;3145;42.726;23.342;2024-01-15T01:36:25;216.10;;;106.50;;
6223;SDS011;3145;42.726;23.342;2024-01-15T01:38:51;233.37;;;118.23;;
6223;SDS011;3145;42.726;23.342;2024-01-15T01:41:18;244.80;;;124.40;;
6223;SDS011;3145;42.726;23.342;2024-01-15T01:43:45;276.93;;;132.50;;
6223;SDS011;3145;42.726;23.342;2024-01-15T01:46:13;285.50;;;144.97;;
6223;SDS011;3145;42.726;23.342;2024-01-15T01:48:39;273.10;;;136.57;;
6223;SDS011;3145;42.726;23.342;2024-01-15T01:51:06;277.63;;;135.93;;
6223;SDS011;3145;42.726;23.342;2024-01-15T01:53:34;317.47;;;160.37;;
6223;SDS011;3145;42.726;23.342;2024-01-15T01:56:02;314.23;;;146.37;;
6223;SDS011;3145;42.726;23.342;2024-01-15T01:58:30;341.20;;;158.23;;
6223;SDS011;3145;42.726;23.342;2024-01-15T02:00:57;320.83;;;156.40;;
6223;SDS011;3145;42.726;23.342;2024-01-15T02:03:27;301.10;;;154.30;;
6223;SDS011;3145;42.726;23.342;2024-01-15T02:05:53;226.93;;;109.00;;
6223;SDS011;3145;42.726;23.342;2024-01-15T02:08:21;267.63;;;132.20;;
6223;SDS011;3145;42.726;23.342;2024-01-15T02:10:48;255.17;;;132.77;;
6223;SDS011;3145;42.726;23.342;2024-01-15T02:13:15;236.70;;;118.13;;
6223;SDS011;3145;42.726;23.342;2024-01-15T02:15:42;250.30;;;124.53;;
6223;SDS011;3145;42.726;23.342;2024-01-15T02:18:08;223.73;;;113.63;;
6223;SDS011;3145;42.726;23.342;2024-01-15T02:20:36;247.73;;;124.80;;
6223;SDS011;3145;42.726;23.342;2024-01-15T02:23:06;220.23;;;107.30;;
6223;SDS011;3145;42.726;23.342;2024-01-15T02:25:35;216.43;;;108.13;;
6223;SDS011;3145;42.726;23.342;2024-01-15T02:28:02;246.90;;;123.87;;
6223;SDS011;3145;42.726;23.342;2024-01-15T02:30:30;205.73;;;101.60;;
6223;SDS011;3145;42.726;23.342;2024-01-15T02:32:57;190.50;;;94.73;;
6223;SDS011;3145;42.726;23.342;2024-01-15T02:35:24;211.20;;;106.67;;
6223;SDS011;3145;42.726;23.342;2024-01-15T02:37:51;200.83;;;103.47;;
6223;SDS011;3145;42.726;23.342;2024-01-15T02:40:19;189.37;;;93.03;;
6223;SDS011;3145;42.726;23.342;2024-01-15T02:42:45;175.20;;;89.03;;
6223;SDS011;3145;42.726;23.342;2024-01-15T02:45:12;189.73;;;88.17;;
6223;SDS011;3145;42.726;23.342;2024-01-15T02:47:39;153.67;;;79.93;;
6223;SDS011;3145;42.726;23.342;2024-01-15T02:50:06;159.90;;;77.47;;
6223;SDS011;3145;42.726;23.342;2024-01-15T02:52:33;157.47;;;77.17;;
6223;SDS011;3145;42.726;23.342;2024-01-15T02:55:00;160.27;;;76.43;;
6223;SDS011;3145;42.726;23.342;2024-01-15T02:57:28;146.47;;;75.27;;
6223;SDS011;3145;42.726;23.342;2024-01-15T02:59:54;138.93;;;68.67;;
6223;SDS011;3145;42.726;23.342;2024-01-15T03:02:21;140.67;;;69.67;;
6223;SDS011;3145;42.726;23.342;2024-01-15T03:04:48;139.30;;;69.67;;
6223;SDS011;3145;42.726;23.342;2024-01-15T03:07:15;171.97;;;75.60;;
6223;SDS011;3145;42.726;23.342;2024-01-15T03:09:41;149.27;;;72.83;;
6223;SDS011;3145;42.726;23.342;2024-01-15T03:12:08;148.37;;;73.37;;
6223;SDS011;3145;42.726;23.342;2024-01-15T03:14:37;138.27;;;69.03;;
6223;SDS011;3145;42.726;23.342;2024-01-15T03:17:04;135.70;;;70.53;;
6223;SDS011;3145;42.726;23.342;2024-01-15T03:19:31;142.20;;;73.50;;
6223;SDS011;3145;42.726;23.342;2024-01-15T03:22:00;143.10;;;73.97;;
6223;SDS011;3145;42.726;23.342;2024-01-15T03:24:28;150.93;;;76.37;;
6223;SDS011;3145;42.726;23.342;2024-01-15T03:26:55;140.93;;;68.33;;
6223;SDS011;3145;42.726;23.342;2024-01-15T03:29:22;130.27;;;67.40;;
6223;SDS011;3145;42.726;23.342;2024-01-15T03:31:50;134.63;;;70.10;;
6223;SDS011;3145;42.726;23.342;2024-01-15T03:34:17;120.90;;;62.80;;
6223;SDS011;3145;42.726;23.342;2024-01-15T03:36:43;132.47;;;63.93;;
6223;SDS011;3145;42.726;23.342;2024-01-15T03:39:10;122.40;;;62.73;;
6223;SDS011;3145;42.726;23.342;2024-01-15T03:41:37;132.03;;;65.17;;
6223;SDS011;3145;42.726;23.342;2024-01-15T03:44:03;135.07;;;69.77;;
6223;SDS011;3145;42.726;23.342;2024-01-15T03:46:30;133.60;;;74.10;;
6223;SDS011;3145;42.726;23.342;2024-01-15T03:48:59;152.27;;;77.50;;
6223;SDS011;3145;42.726;23.342;2024-01-15T03:51:25;152.63;;;81.03;;
6223;SDS011;3145;42.726;23.342;2024-01-15T03:53:52;207.43;;;105.20;;
6223;SDS011;3145;42.726;23.342;2024-01-15T03:56:19;181.53;;;90.60;;
6223;SDS011;3145;42.726;23.342;2024-01-15T03:58:45;149.50;;;81.57;;
6223;SDS011;3145;42.726;23.342;2024-01-15T04:01:12;153.87;;;81.17;;
6223;SDS011;3145;42.726;23.342;2024-01-15T04:03:39;154.73;;;83.13;;
6223;SDS011;3145;42.726;23.342;2024-01-15T04:06:07;163.70;;;88.70;;
6223;SDS011;3145;42.726;23.342;2024-01-15T04:08:34;148.43;;;81.80;;
6223;SDS011;3145;42.726;23.342;2024-01-15T04:11:00;144.57;;;77.53;;
6223;SDS011;3145;42.726;23.342;2024-01-15T04:13:27;139.43;;;78.33;;
6223;SDS011;3145;42.726;23.342;2024-01-15T04:15:54;164.13;;;82.40;;
6223;SDS011;3145;42.726;23.342;2024-01-15T04:18:21;130.73;;;73.00;;
6223;SDS011;3145;42.726;23.342;2024-01-15T04:20:47;140.57;;;73.70;;
6223;SDS011;3145;42.726;23.342;2024-01-15T04:23:15;126.20;;;68.50;;
6223;SDS011;3145;42.726;23.342;2024-01-15T04:25:42;117.13;;;63.90;;
6223;SDS011;3145;42.726;23.342;2024-01-15T04:28:09;120.67;;;65.93;;
6223;SDS011;3145;42.726;23.342;2024-01-15T04:30:36;127.30;;;67.40;;
6223;SDS011;3145;42.726;23.342;2024-01-15T04:33:03;125.37;;;65.23;;
6223;SDS011;3145;42.726;23.342;2024-01-15T04:35:30;120.67;;;66.47;;
6223;SDS011;3145;42.726;23.342;2024-01-15T04:37:57;136.60;;;71.77;;
6223;SDS011;3145;42.726;23.342;2024-01-15T04:40:25;130.00;;;68.23;;
6223;SDS011;3145;42.726;23.342;2024-01-15T04:42:52;122.83;;;63.37;;
6223;SDS011;3145;42.726;23.342;2024-01-15T04:45:19;131.10;;;68.37;;
6223;SDS011;3145;42.726;23.342;2024-01-15T04:47:47;113.53;;;60.53;;
6223;SDS011;3145;42.726;23.342;2024-01-15T04:50:14;113.83;;;63.70;;
6223;SDS011;3145;42.726;23.342;2024-01-15T04:52:41;118.23;;;63.40;;
6223;SDS011;3145;42.726;23.342;2024-01-15T04:55:08;111.60;;;64.57;;
6223;SDS011;3145;42.726;23.342;2024-01-15T04:57:36;131.60;;;67.40;;
6223;SDS011;3145;42.726;23.342;2024-01-15T05:00:03;109.07;;;62.83;;
6223;SDS011;3145;42.726;23.342;2024-01-15T05:02:31;119.33;;;64.40;;
6223;SDS011;3145;42.726;23.342;2024-01-15T05:04:57;127.17;;;67.47;;
6223;SDS011;3145;42.726;23.342;2024-01-15T05:07:24;121.97;;;67.77;;
6223;SDS011;3145;42.726;23.342;2024-01-15T05:09:51;126.60;;;67.90;;
6223;SDS011;3145;42.726;23.342;2024-01-15T05:12:17;125.67;;;70.43;;
6223;SDS011;3145;42.726;23.342;2024-01-15T05:14:45;127.93;;;70.57;;
6223;SDS011;3145;42.726;23.342;2024-01-15T05:17:12;149.43;;;80.73;;
6223;SDS011;3145;42.726;23.342;2024-01-15T05:19:39;150.03;;;83.43;;
6223;SDS011;3145;42.726;23.342;2024-01-15T05:22:05;158.50;;;80.37;;
6223;SDS011;3145;42.726;23.342;2024-01-15T05:24:32;147.83;;;80.57;;
6223;SDS011;3145;42.726;23.342;2024-01-15T05:26:59;141.43;;;77.23;;
6223;SDS011;3145;42.726;23.342;2024-01-15T05:29:25;136.30;;;77.53;;
6223;SDS011;3145;42.726;23.342;2024-01-15T05:31:54;132.30;;;71.73;;
6223;SDS011;3145;42.726;23.342;2024-01-15T05:34:21;132.27;;;73.20;;
6223;SDS011;3145;42.726;23.342;2024-01-15T05:36:47;125.97;;;69.33;;
6223;SDS011;3145;42.726;23.342;2024-01-15T05:39:14;144.30;;;75.57;;
6223;SDS011;3145;42.726;23.342;2024-01-15T05:41:41;135.73;;;73.97;;
6223;SDS011;3145;42.726;23.342;2024-01-15T05:44:07;127.97;;;73.57;;
6223;SDS011;3145;42.726;23.342;2024-01-15T05:46:35;138.67;;;77.73;;
6223;SDS011;3145;42.726;23.342;2024-01-15T05:49:03;144.63;;;78.30;;
6223;SDS011;3145;42.726;23.342;2024-01-15T05:51:29;142.37;;;74.93;;
6223;SDS011;3145;42.726;23.342;2024-01-15T05:53:56;145.03;;;75.30;;
6223;SDS011;3145;42.726;23.342;2024-01-15T05:56:23;145.13;;;83.67;;
6223;SDS011;3145;42.726;23.342;2024-01-15T05:58:50;164.07;;;92.37;;
6223;SDS011;3145;42.726;23.342;2024-01-15T06:01:17;141.80;;;81.93;;
6223;SDS011;3145;42.726;23.342;2024-01-15T06:03:43;143.60;;;76.37;;
6223;SDS011;3145;42.726;23.342;2024-01-15T06:06:11;136.47;;;77.93;;
6223;SDS011;3145;42.726;23.342;2024-01-15T06:08:39;154.97;;;80.93;;
6223;SDS011;3145;42.726;23.342;2024-01-15T06:11:06;209.03;;;104.03;;
6223;SDS011;3145;42.726;23.342;2024-01-15T06:13:32;219.40;;;109.57;;
6223;SDS011;3145;42.726;23.342;2024-01-15T06:15:59;214.80;;;111.50;;
6223;SDS011;3145;42.726;23.342;2024-01-15T06:18:26;201.03;;;102.83;;
6223;SDS011;3145;42.726;23.342;2024-01-15T06:20:53;210.90;;;108.33;;
6223;SDS011;3145;42.726;23.342;2024-01-15T06:23:21;171.17;;;91.00;;
6223;SDS011;3145;42.726;23.342;2024-01-15T06:25:47;190.73;;;97.30;;
6223;SDS011;3145;42.726;23.342;2024-01-15T06:28:14;187.57;;;98.23;;
6223;SDS011;3145;42.726;23.342;2024-01-15T06:30:41;208.07;;;113.67;;
6223;SDS011;3145;42.726;23.342;2024-01-15T06:33:07;195.57;;;104.40;;
6223;SDS011;3145;42.726;23.342;2024-01-15T06:35:34;174.30;;;102.10;;
6223;SDS011;3145;42.726;23.342;2024-01-15T06:38:01;191.30;;;102.13;;
6223;SDS011;3145;42.726;23.342;2024-01-15T06:40:29;194.87;;;103.53;;
6223;SDS011;3145;42.726;23.342;2024-01-15T06:42:56;182.00;;;104.33;;
6223;SDS011;3145;42.726;23.342;2024-01-15T06:45:22;227.90;;;118.57;;
6223;SDS011;3145;42.726;23.342;2024-01-15T06:47:49;363.23;;;176.37;;
6223;SDS011;3145;42.726;23.342;2024-01-15T06:50:16;259.53;;;137.50;;
6223;SDS011;3145;42.726;23.342;2024-01-15T06:52:42;239.33;;;127.33;;
6223;SDS011;3145;42.726;23.342;2024-01-15T06:55:09;235.97;;;122.87;;
6223;SDS011;3145;42.726;23.342;2024-01-15T06:57:37;231.57;;;124.67;;
6223;SDS011;3145;42.726;23.342;2024-01-15T07:00:04;208.50;;;116.20;;
6223;SDS011;3145;42.726;23.342;2024-01-15T07:02:33;203.33;;;114.63;;
6223;SDS011;3145;42.726;23.342;2024-01-15T07:05:00;201.57;;;99.70;;
6223;SDS011;3145;42.726;23.342;2024-01-15T07:07:26;178.80;;;98.83;;
6223;SDS011;3145;42.726;23.342;2024-01-15T07:09:54;172.83;;;97.57;;
6223;SDS011;3145;42.726;23.342;2024-01-15T07:12:21;180.40;;;95.23;;
6223;SDS011;3145;42.726;23.342;2024-01-15T07:14:49;168.80;;;90.80;;
6223;SDS011;3145;42.726;23.342;2024-01-15T07:17:16;164.43;;;92.03;;
6223;SDS011;3145;42.726;23.342;2024-01-15T07:19:43;166.87;;;90.67;;
6223;SDS011;3145;42.726;23.342;2024-01-15T07:22:09;181.53;;;99.50;;
6223;SDS011;3145;42.726;23.342;2024-01-15T07:24:36;170.67;;;94.00;;
6223;SDS011;3145;42.726;23.342;2024-01-15T07:27:03;162.53;;;85.33;;
6223;SDS011;3145;42.726;23.342;2024-01-15T07:29:30;156.73;;;87.40;;
6223;SDS011;3145;42.726;23.342;2024-01-15T07:31:59;163.67;;;87.73;;
6223;SDS011;3145;42.726;23.342;2024-01-15T07:34:26;160.77;;;88.97;;
6223;SDS011;3145;42.726;23.342;2024-01-15T07:36:53;167.73;;;91.17;;
6223;SDS011;3145;42.726;23.342;2024-01-15T07:39:19;180.37;;;96.67;;
6223;SDS011;3145;42.726;23.342;2024-01-15T07:41:47;210.73;;;109.70;;
6223;SDS011;3145;42.726;23.342;2024-01-15T07:44:14;206.97;;;114.33;;
6223;SDS011;3145;42.726;23.342;2024-01-15T07:46:43;212.00;;;107.57;;
6223;SDS011;3145;42.726;23.342;2024-01-15T07:49:11;219.67;;;110.50;;
6223;SDS011;3145;42.726;23.342;2024-01-15T07:51:38;261.67;;;130.27;;
6223;SDS011;3145;42.726;23.342;2024-01-15T07:54:06;272.50;;;128.20;;
6223;SDS011;3145;42.726;23.342;2024-01-15T07:56:33;263.80;;;123.93;;
6223;SDS011;3145;42.726;23.342;2024-01-15T07:58:59;220.00;;;114.37;;
6223;SDS011;3145;42.726;23.342;2024-01-15T08:01:26;218.33;;;109.30;;
6223;SDS011;3145;42.726;23.342;2024-01-15T08:03:53;182.80;;;90.50;;
6223;SDS011;3145;42.726;23.342;2024-01-15T08:06:21;177.30;;;87.33;;
6223;SDS011;3145;42.726;23.342;2024-01-15T08:08:48;146.03;;;71.93;;
6223;SDS011;3145;42.726;23.342;2024-01-15T08:11:15;117.53;;;64.37;;
6223;SDS011;3145;42.726;23.342;2024-01-15T08:13:41;115.40;;;66.27;;
6223;SDS011;3145;42.726;23.342;2024-01-15T08:16:08;93.60;;;53.70;;
6223;SDS011;3145;42.726;23.342;2024-01-15T08:18:35;92.33;;;51.37;;
6223;SDS011;3145;42.726;23.342;2024-01-15T08:21:02;91.73;;;51.70;;
6223;SDS011;3145;42.726;23.342;2024-01-15T08:23:30;85.63;;;47.87;;
6223;SDS011;3145;42.726;23.342;2024-01-15T08:25:57;92.93;;;50.40;;
6223;SDS011;3145;42.726;23.342;2024-01-15T08:28:24;107.30;;;56.83;;
6223;SDS011;3145;42.726;23.342;2024-01-15T08:30:50;113.47;;;66.37;;
6223;SDS011;3145;42.726;23.342;2024-01-15T08:33:17;120.63;;;64.67;;
6223;SDS011;3145;42.726;23.342;2024-01-15T08:35:43;122.17;;;66.93;;
6223;SDS011;3145;42.726;23.342;2024-01-15T08:38:10;127.37;;;69.10;;
6223;SDS011;3145;42.726;23.342;2024-01-15T08:40:38;124.67;;;68.93;;
6223;SDS011;3145;42.726;23.342;2024-01-15T08:43:05;136.73;;;77.07;;
6223;SDS011;3145;42.726;23.342;2024-01-15T08:45:32;145.93;;;76.70;;
6223;SDS011;3145;42.726;23.342;2024-01-15T08:47:59;136.67;;;78.67;;
6223;SDS011;3145;42.726;23.342;2024-01-15T08:50:27;113.07;;;59.83;;
6223;SDS011;3145;42.726;23.342;2024-01-15T08:52:53;109.23;;;57.63;;
6223;SDS011;3145;42.726;23.342;2024-01-15T08:55:20;101.43;;;58.70;;
6223;SDS011;3145;42.726;23.342;2024-01-15T08:57:50;110.30;;;59.07;;
6223;SDS011;3145;42.726;23.342;2024-01-15T09:00:17;101.07;;;57.73;;
6223;SDS011;3145;42.726;23.342;2024-01-15T09:02:44;125.90;;;65.60;;
6223;SDS011;3145;42.726;23.342;2024-01-15T09:05:11;138.50;;;68.30;;
6223;SDS011;3145;42.726;23.342;2024-01-15T09:07:37;117.30;;;64.83;;
6223;SDS011;3145;42.726;23.342;2024-01-15T09:10:04;130.60;;;72.67;;
6223;SDS011;3145;42.726;23.342;2024-01-15T09:12:32;131.13;;;68.53;;
6223;SDS011;3145;42.726;23.342;2024-01-15T09:15:00;144.77;;;81.27;;
6223;SDS011;3145;42.726;23.342;2024-01-15T09:17:29;135.07;;;76.30;;
6223;SDS011;3145;42.726;23.342;2024-01-15T09:19:56;151.17;;;75.40;;
6223;SDS011;3145;42.726;23.342;2024-01-15T09:22:22;135.30;;;76.07;;
6223;SDS011;3145;42.726;23.342;2024-01-15T09:24:49;134.93;;;74.63;;
6223;SDS011;3145;42.726;23.342;2024-01-15T09:27:16;122.07;;;73.47;;
6223;SDS011;3145;42.726;23.342;2024-01-15T09:29:42;136.27;;;72.33;;
6223;SDS011;3145;42.726;23.342;2024-01-15T09:32:12;147.43;;;78.50;;
6223;SDS011;3145;42.726;23.342;2024-01-15T09:34:38;151.83;;;77.80;;
6223;SDS011;3145;42.726;23.342;2024-01-15T09:37:06;152.80;;;81.20;;
6223;SDS011;3145;42.726;23.342;2024-01-15T09:39:33;133.50;;;76.17;;
6223;SDS011;3145;42.726;23.342;2024-01-15T09:41:59;137.63;;;74.90;;
6223;SDS011;3145;42.726;23.342;2024-01-15T09:44:27;150.63;;;79.63;;
6223;SDS011;3145;42.726;23.342;2024-01-15T09:46:55;131.93;;;73.53;;
6223;SDS011;3145;42.726;23.342;2024-01-15T09:49:23;144.27;;;79.50;;
6223;SDS011;3145;42.726;23.342;2024-01-15T09:51:50;139.83;;;78.40;;
6223;SDS011;3145;42.726;23.342;2024-01-15T09:54:17;126.17;;;67.93;;
6223;SDS011;3145;42.726;23.342;2024-01-15T09:56:44;116.90;;;59.73;;
6223;SDS011;3145;42.726;23.342;2024-01-15T09:59:12;121.10;;;63.80;;
6223;SDS011;3145;42.726;23.342;2024-01-15T10:01:40;116.67;;;67.80;;
6223;SDS011;3145;42.726;23.342;2024-01-15T10:04:09;113.90;;;61.93;;
6223;SDS011;3145;42.726;23.342;2024-01-15T10:06:37;134.00;;;71.30;;
6223;SDS011;3145;42.726;23.342;2024-01-15T10:09:05;129.00;;;69.60;;
6223;SDS011;3145;42.726;23.342;2024-01-15T10:11:33;125.17;;;68.20;;
6223;SDS011;3145;42.726;23.342;2024-01-15T10:13:59;128.93;;;67.63;;
6223;SDS011;3145;42.726;23.342;2024-01-15T10:16:27;107.60;;;62.33;;
6223;SDS011;3145;42.726;23.342;2024-01-15T10:18:54;100.17;;;57.47;;
6223;SDS011;3145;42.726;23.342;2024-01-15T10:21:20;146.57;;;77.37;;
6223;SDS011;3145;42.726;23.342;2024-01-15T10:23:48;113.83;;;60.47;;
6223;SDS011;3145;42.726;23.342;2024-01-15T10:26:15;122.10;;;61.07;;
6223;SDS011;3145;42.726;23.342;2024-01-15T10:28:42;123.37;;;61.17;;
6223;SDS011;3145;42.726;23.342;2024-01-15T10:31:09;112.43;;;57.47;;
6223;SDS011;3145;42.726;23.342;2024-01-15T10:33:36;111.13;;;57.67;;
6223;SDS011;3145;42.726;23.342;2024-01-15T10:36:03;94.63;;;53.47;;
6223;SDS011;3145;42.726;23.342;2024-01-15T10:38:36;119.03;;;58.33;;
6223;SDS011;3145;42.726;23.342;2024-01-15T10:41:04;142.57;;;71.03;;
6223;SDS011;3145;42.726;23.342;2024-01-15T10:43:31;144.37;;;70.50;;
6223;SDS011;3145;42.726;23.342;2024-01-15T10:45:57;118.87;;;61.30;;
6223;SDS011;3145;42.726;23.342;2024-01-15T10:48:26;146.50;;;76.43;;
6223;SDS011;3145;42.726;23.342;2024-01-15T10:50:55;121.57;;;64.17;;
6223;SDS011;3145;42.726;23.342;2024-01-15T10:53:22;152.90;;;79.90;;
6223;SDS011;3145;42.726;23.342;2024-01-15T10:55:50;141.90;;;75.03;;
6223;SDS011;3145;42.726;23.342;2024-01-15T10:58:19;124.30;;;67.43;;
6223;SDS011;3145;42.726;23.342;2024-01-15T11:00:47;89.47;;;52.90;;
6223;SDS011;3145;42.726;23.342;2024-01-15T11:03:14;86.90;;;49.37;;
6223;SDS011;3145;42.726;23.342;2024-01-15T11:05:43;96.77;;;54.63;;
6223;SDS011;3145;42.726;23.342;2024-01-15T11:08:10;74.73;;;44.47;;
6223;SDS011;3145;42.726;23.342;2024-01-15T11:10:37;66.57;;;42.77;;
6223;SDS011;3145;42.726;23.342;2024-01-15T11:13:05;79.97;;;46.47;;
6223;SDS011;3145;42.726;23.342;2024-01-15T11:15:46;68.23;;;39.77;;
6223;SDS011;3145;42.726;23.342;2024-01-15T11:18:21;72.13;;;40.77;;
6223;SDS011;3145;42.726;23.342;2024-01-15T11:23:44;65.80;;;40.83;;
6223;SDS011;3145;42.726;23.342;2024-01-15T11:26:26;58.23;;;38.70;;
6223;SDS011;3145;42.726;23.342;2024-01-15T11:28:58;65.97;;;39.27;;
6223;SDS011;3145;42.726;23.342;2024-01-15T11:31:28;60.77;;;38.87;;
6223;SDS011;3145;42.726;23.342;2024-01-15T11:33:55;68.03;;;43.30;;
6223;SDS011;3145;42.726;23.342;2024-01-15T11:36:25;82.47;;;44.30;;
6223;SDS011;3145;42.726;23.342;2024-01-15T11:39:39;75.63;;;43.03;;
6223;SDS011;3145;42.726;23.342;2024-01-15T11:42:07;69.33;;;40.57;;
6223;SDS011;3145;42.726;23.342;2024-01-15T11:44:36;64.63;;;38.47;;
6223;SDS011;3145;42.726;23.342;2024-01-15T11:47:05;73.03;;;42.13;;
6223;SDS011;3145;42.726;23.342;2024-01-15T11:49:37;54.27;;;35.37;;
6223;SDS011;3145;42.726;23.342;2024-01-15T11:52:33;65.47;;;41.37;;
6223;SDS011;3145;42.726;23.342;2024-01-15T11:55:01;67.37;;;41.20;;
6223;SDS011;3145;42.726;23.342;2024-01-15T11:57:39;68.67;;;40.50;;
6223;SDS011;3145;42.726;23.342;2024-01-15T12:00:10;67.97;;;41.87;;
6223;SDS011;3145;42.726;23.342;2024-01-15T12:02:39;68.30;;;43.17;;
6223;SDS011;3145;42.726;23.342;2024-01-15T12:05:06;77.67;;;45.30;;
6223;SDS011;3145;42.726;23.342;2024-01-15T12:07:33;86.30;;;49.67;;
6223;SDS011;3145;42.726;23.342;2024-01-15T12:10:00;85.87;;;48.77;;
6223;SDS011;3145;42.726;23.342;2024-01-15T12:12:29;83.60;;;49.80;;
6223;SDS011;3145;42.726;23.342;2024-01-15T12:15:04;104.70;;;53.77;;
6223;SDS011;3145;42.726;23.342;2024-01-15T12:17:31;92.53;;;52.47;;
6223;SDS011;3145;42.726;23.342;2024-01-15T12:19:59;88.43;;;50.10;;
6223;SDS011;3145;42.726;23.342;2024-01-15T12:22:26;97.77;;;55.83;;
6223;SDS011;3145;42.726;23.342;2024-01-15T12:24:53;95.17;;;55.60;;
6223;SDS011;3145;42.726;23.342;2024-01-15T12:27:20;100.70;;;56.13;;
6223;SDS011;3145;42.726;23.342;2024-01-15T12:29:47;113.63;;;62.13;;
6223;SDS011;3145;42.726;23.342;2024-01-15T12:32:14;139.30;;;80.13;;
6223;SDS011;3145;42.726;23.342;2024-01-15T12:34:40;196.77;;;104.97;;
6223;SDS011;3145;42.726;23.342;2024-01-15T12:37:09;236.30;;;124.63;;
6223;SDS011;3145;42.726;23.342;2024-01-15T12:39:37;101.50;;;56.93;;
6223;SDS011;3145;42.726;23.342;2024-01-15T12:42:04;94.53;;;52.03;;
6223;SDS011;3145;42.726;23.342;2024-01-15T12:44:31;100.00;;;51.93;;
6223;SDS011;3145;42.726;23.342;2024-01-15T12:46:57;102.47;;;57.37;;
6223;SDS011;3145;42.726;23.342;2024-01-15T12:49:24;114.43;;;58.47;;
6223;SDS011;3145;42.726;23.342;2024-01-15T12:51:52;113.87;;;59.10;;
6223;SDS011;3145;42.726;23.342;2024-01-15T12:54:21;114.77;;;60.70;;
6223;SDS011;3145;42.726;23.342;2024-01-15T12:56:49;145.37;;;71.90;;
6223;SDS011;3145;42.726;23.342;2024-01-15T12:59:16;125.70;;;65.77;;
6223;SDS011;3145;42.726;23.342;2024-01-15T13:01:42;131.47;;;65.73;;
6223;SDS011;3145;42.726;23.342;2024-01-15T13:04:09;124.67;;;67.33;;
6223;SDS011;3145;42.726;23.342;2024-01-15T13:06:36;125.17;;;68.37;;
6223;SDS011;3145;42.726;23.342;2024-01-15T13:09:03;116.93;;;62.00;;
6223;SDS011;3145;42.726;23.342;2024-01-15T13:11:32;103.13;;;58.57;;
6223;SDS011;3145;42.726;23.342;2024-01-15T13:13:59;106.00;;;55.93;;
6223;SDS011;3145;42.726;23.342;2024-01-15T13:16:26;120.93;;;62.07;;
6223;SDS011;3145;42.726;23.342;2024-01-15T13:18:54;124.67;;;61.40;;
6223;SDS011;3145;42.726;23.342;2024-01-15T13:21:21;141.63;;;65.67;;
6223;SDS011;3145;42.726;23.342;2024-01-15T13:23:48;120.63;;;59.93;;
6223;SDS011;3145;42.726;23.342;2024-01-15T13:26:15;128.03;;;57.17;;
6223;SDS011;3145;42.726;23.342;2024-01-15T13:28:44;144.40;;;72.40;;
6223;SDS011;3145;42.726;23.342;2024-01-15T13:31:11;148.10;;;74.17;;
6223;SDS011;3145;42.726;23.342;2024-01-15T13:33:38;142.63;;;69.80;;
6223;SDS011;3145;42.726;23.342;2024-01-15T13:36:05;144.20;;;70.03;;
6223;SDS011;3145;42.726;23.342;2024-01-15T13:38:35;153.23;;;71.03;;
6223;SDS011;3145;42.726;23.342;2024-01-15T13:41:03;159.87;;;86.73;;
6223;SDS011;3145;42.726;23.342;2024-01-15T13:43:31;168.17;;;89.70;;
6223;SDS011;3145;42.726;23.342;2024-01-15T13:45:59;173.27;;;90.00;;
6223;SDS011;3145;42.726;23.342;2024-01-15T13:48:29;167.63;;;89.33;;
6223;SDS011;3145;42.726;23.342;2024-01-15T13:50:56;172.83;;;91.13;;
6223;SDS011;3145;42.726;23.342;2024-01-15T13:53:24;160.90;;;83.20;;
6223;SDS011;3145;42.726;23.342;2024-01-15T13:55:51;199.03;;;96.50;;
6223;SDS011;3145;42.726;23.342;2024-01-15T13:58:17;208.60;;;104.37;;
6223;SDS011;3145;42.726;23.342;2024-01-15T14:00:46;196.03;;;100.33;;
6223;SDS011;3145;42.726;23.342;2024-01-15T14:03:14;179.00;;;98.93;;
6223;SDS011;3145;42.726;23.342;2024-01-15T14:05:41;329.43;;;185.67;;
6223;SDS011;3145;42.726;23.342;2024-01-15T14:08:08;241.20;;;131.43;;
6223;SDS011;3145;42.726;23.342;2024-01-15T14:10:35;255.77;;;140.60;;
6223;SDS011;3145;42.726;23.342;2024-01-15T14:13:02;245.90;;;130.67;;
6223;SDS011;3145;42.726;23.342;2024-01-15T14:15:29;232.77;;;124.73;;
6223;SDS011;3145;42.726;23.342;2024-01-15T14:17:56;225.43;;;130.13;;
6223;SDS011;3145;42.726;23.342;2024-01-15T14:20:24;255.13;;;133.33;;
6223;SDS011;3145;42.726;23.342;2024-01-15T14:22:51;243.37;;;134.57;;